Time;durP1;ratioP1;P1;durP2;ratioP2;P2;SDS_P1;SDS_P2;PMS_P1;PMS_P2;Temp;Humidity;BMP_temperature;BMP_pressure;BME280_temperature;BME280_humidity;BME280_pressure;Samples;Min_cycle;Max_cycle;Signal;HPM_P1;HPM_P2
2022/10/09 00:01:26;;;;;;;6.43;3.57;;;9.20;99.90;;;;;;5033465;28;20712;-59
2022/10/09 00:03:56;;;;;;;5.57;3.30;;;9.20;99.90;;;;;;5033138;28;20233;-59
2022/10/09 00:06:25;;;;;;;5.63;3.10;;;9.20;99.90;;;;;;5033248;28;20202;-58
2022/10/09 00:08:52;;;;;;;7.03;3.60;;;9.10;99.90;;;;;;5032898;28;20206;-59
2022/10/09 00:11:22;;;;;;;4.67;3.20;;;9.10;99.90;;;;;;5033564;28;20213;-59
2022/10/09 00:13:49;;;;;;;4.90;3.27;;;9.00;99.90;;;;;;5033619;28;20230;-59
2022/10/09 00:16:17;;;;;;;6.63;3.27;;;9.00;99.90;;;;;;5033009;28;20213;-59
2022/10/09 00:18:45;;;;;;;5.30;3.47;;;9.10;99.90;;;;;;5032638;28;20323;-59
2022/10/09 00:21:19;;;;;;;4.83;3.20;;;9.00;99.90;;;;;;5033257;28;20216;-60
2022/10/09 00:23:47;;;;;;;5.97;3.00;;;9.10;99.90;;;;;;5033364;28;20230;-59
2022/10/09 00:26:13;;;;;;;6.10;3.30;;;9.10;99.90;;;;;;5033396;28;20674;-59
2022/10/09 00:28:40;;;;;;;6.77;3.40;;;9.20;99.90;;;;;;5034940;28;20685;-59
2022/10/09 00:31:08;;;;;;;10.93;3.70;;;9.10;99.90;;;;;;5038082;28;20221;-59
2022/10/09 00:33:36;;;;;;;6.80;3.30;;;9.10;99.90;;;;;;5039533;28;20298;-60
2022/10/09 00:36:04;;;;;;;6.20;3.37;;;9.10;99.90;;;;;;5040356;28;20208;-60
2022/10/09 00:38:33;;;;;;;6.13;3.17;;;9.00;99.90;;;;;;5038999;28;20320;-59
2022/10/09 00:40:59;;;;;;;6.47;3.80;;;9.10;99.90;;;;;;5038650;28;20613;-58
2022/10/09 00:43:45;;;;;;;8.20;2.93;;;9.00;99.90;;;;;;5037863;28;20297;-58
2022/10/09 00:46:33;;;;;;;8.00;3.53;;;8.90;99.90;;;;;;5037542;28;20210;-58
2022/10/09 00:49:09;;;;;;;7.40;3.50;;;8.90;99.90;;;;;;5037249;28;20293;-59
2022/10/09 00:51:36;;;;;;;6.67;3.13;;;8.80;99.90;;;;;;5038052;28;20608;-57
2022/10/09 00:54:08;;;;;;;7.83;3.13;;;8.80;99.90;;;;;;5038703;28;20590;-58
2022/10/09 00:56:35;;;;;;;6.70;2.90;;;8.80;99.90;;;;;;5037693;28;20210;-58
2022/10/09 00:59:03;;;;;;;7.90;3.20;;;8.70;99.90;;;;;;5037429;28;20233;-59
2022/10/09 01:01:30;;;;;;;7.67;3.27;;;8.70;99.90;;;;;;5037886;28;20557;-58
2022/10/09 01:03:57;;;;;;;7.47;3.03;;;8.70;99.90;;;;;;5038092;28;20254;-58
2022/10/09 01:06:37;;;;;;;6.80;3.07;;;8.70;99.90;;;;;;5036809;28;20210;-57
2022/10/09 01:09:09;;;;;;;6.47;3.00;;;8.60;99.90;;;;;;5036474;28;20212;-57
2022/10/09 01:11:43;;;;;;;5.93;3.03;;;8.60;99.90;;;;;;5037100;28;20213;-57
2022/10/09 01:14:19;;;;;;;5.43;3.17;;;8.60;99.90;;;;;;5036669;28;20206;-57
2022/10/09 01:16:53;;;;;;;5.67;2.87;;;8.60;99.90;;;;;;5036281;28;20682;-57
2022/10/09 01:19:35;;;;;;;6.20;3.00;;;8.60;99.90;;;;;;5035945;28;20233;-57
2022/10/09 01:22:13;;;;;;;8.80;3.27;;;8.60;99.90;;;;;;5036359;28;20617;-58
2022/10/09 01:24:48;;;;;;;7.73;3.10;;;8.60;99.90;;;;;;5036486;28;20214;-58
2022/10/09 01:27:20;;;;;;;5.30;2.70;;;8.60;99.90;;;;;;5036426;28;20212;-57
2022/10/09 01:29:52;;;;;;;4.47;2.73;;;8.60;99.90;;;;;;5035876;28;20237;-57
2022/10/09 01:32:22;;;;;;;6.77;2.80;;;8.60;99.90;;;;;;5063031;22;20276;-59
2022/10/09 01:34:50;;;;;;;7.47;3.20;;;8.60;99.90;;;;;;5054534;28;20704;-57
2022/10/09 01:37:20;;;;;;;4.93;2.70;;;8.60;99.90;;;;;;5034693;28;20222;-56
2022/10/09 01:39:48;;;;;;;6.53;3.07;;;8.60;99.90;;;;;;5033717;28;20210;-57
2022/10/09 01:42:18;;;;;;;9.47;2.87;;;8.60;99.90;;;;;;5034421;28;20217;-60
2022/10/09 01:44:44;;;;;;;8.03;3.37;;;8.50;99.90;;;;;;5034586;28;20206;-57
2022/10/09 01:47:15;;;;;;;7.00;3.23;;;8.50;99.90;;;;;;5034427;28;20689;-57
2022/10/09 01:49:49;;;;;;;5.47;3.03;;;8.50;99.90;;;;;;5033821;28;20209;-57
2022/10/09 01:52:28;;;;;;;5.73;3.00;;;8.60;99.90;;;;;;5034375;28;20202;-59
2022/10/09 01:55:06;;;;;;;6.40;3.10;;;8.50;99.90;;;;;;5034193;28;20206;-57
2022/10/09 01:57:40;;;;;;;5.37;2.97;;;8.50;99.90;;;;;;5034320;28;20210;-57
2022/10/09 02:00:11;;;;;;;6.80;3.33;;;8.50;99.90;;;;;;5034445;28;20238;-59
2022/10/09 02:02:39;;;;;;;6.70;2.90;;;8.60;99.90;;;;;;5034448;28;20230;-57
2022/10/09 02:05:07;;;;;;;7.77;3.30;;;8.60;99.90;;;;;;5034034;28;20224;-58
2022/10/09 02:07:35;;;;;;;8.80;3.03;;;8.70;99.90;;;;;;5033989;28;20217;-57
2022/10/09 02:10:04;;;;;;;7.87;3.60;;;8.70;99.90;;;;;;5033368;28;20208;-57
2022/10/09 02:12:36;;;;;;;7.47;3.77;;;8.70;99.90;;;;;;5034017;28;20249;-57
2022/10/09 02:15:04;;;;;;;7.80;3.83;;;8.70;99.90;;;;;;5034071;28;20206;-57
2022/10/09 02:17:35;;;;;;;7.23;3.33;;;8.70;99.90;;;;;;5033809;28;20202;-57
2022/10/09 02:20:06;;;;;;;5.10;3.53;;;8.70;99.90;;;;;;5033187;28;20206;-57
2022/10/09 02:22:34;;;;;;;5.53;3.23;;;8.70;99.90;;;;;;5033981;28;20230;-57
2022/10/09 02:25:04;;;;;;;8.73;3.23;;;8.70;99.90;;;;;;5033732;28;20747;-58
2022/10/09 02:27:31;;;;;;;5.30;3.40;;;8.70;99.90;;;;;;5033712;28;20206;-59
2022/10/09 02:30:00;;;;;;;6.20;3.40;;;8.70;99.90;;;;;;5033068;28;20213;-57
2022/10/09 02:32:28;;;;;;;5.93;3.10;;;8.60;99.90;;;;;;5033308;28;20652;-57
2022/10/09 02:34:54;;;;;;;5.63;3.20;;;8.60;99.90;;;;;;5033790;28;20210;-57
2022/10/09 02:37:21;;;;;;;5.90;3.10;;;8.60;99.90;;;;;;5033639;28;20206;-57
2022/10/09 02:39:49;;;;;;;9.27;3.40;;;8.50;99.90;;;;;;5032839;28;20612;-57
2022/10/09 02:42:15;;;;;;;4.97;3.27;;;8.50;99.90;;;;;;5033514;28;20263;-57
2022/10/09 02:44:42;;;;;;;6.03;3.70;;;8.50;99.90;;;;;;5033414;28;20213;-57
2022/10/09 02:47:10;;;;;;;6.93;3.40;;;8.50;99.90;;;;;;5033247;28;20206;-57
2022/10/09 02:49:37;;;;;;;8.10;3.20;;;8.40;99.90;;;;;;5032662;28;20697;-57
2022/10/09 02:52:04;;;;;;;7.37;3.20;;;8.50;99.90;;;;;;5032347;28;20206;-57
2022/10/09 02:54:31;;;;;;;5.60;3.27;;;8.40;99.90;;;;;;5033284;28;20252;-57
2022/10/09 02:56:57;;;;;;;4.70;3.00;;;8.40;99.90;;;;;;5033006;28;20674;-57
2022/10/09 02:59:24;;;;;;;5.03;3.10;;;8.40;99.90;;;;;;5032349;28;20313;-57
2022/10/09 03:01:51;;;;;;;4.93;3.00;;;8.40;99.90;;;;;;5033226;28;20210;-57
2022/10/09 03:04:19;;;;;;;8.43;3.57;;;8.40;99.90;;;;;;5033284;28;20225;-57
2022/10/09 03:06:46;;;;;;;6.83;3.20;;;8.40;99.90;;;;;;5032870;28;20216;-58
2022/10/09 03:09:13;;;;;;;7.70;3.60;;;8.30;99.90;;;;;;5032327;28;20217;-58
2022/10/09 03:11:39;;;;;;;8.53;3.33;;;8.40;99.90;;;;;;5032761;28;20206;-58
2022/10/09 03:14:06;;;;;;;5.17;2.90;;;8.30;99.90;;;;;;5032661;28;20658;-58
2022/10/09 03:16:33;;;;;;;5.10;3.17;;;8.30;99.90;;;;;;5032988;28;20217;-58
2022/10/09 03:18:59;;;;;;;5.50;3.30;;;8.30;99.90;;;;;;5032319;28;20237;-58
2022/10/09 03:21:28;;;;;;;9.20;3.50;;;8.30;99.90;;;;;;5032757;28;20210;-58
2022/10/09 03:23:55;;;;;;;6.00;3.23;;;8.30;99.90;;;;;;5032661;28;20280;-58
2022/10/09 03:26:24;;;;;;;5.40;3.30;;;8.30;99.90;;;;;;5032692;28;20226;-58
2022/10/09 03:28:51;;;;;;;6.73;3.37;;;8.30;99.90;;;;;;5032169;28;20206;-58
2022/10/09 03:31:21;;;;;;;7.27;3.33;;;8.20;99.90;;;;;;5032702;28;20206;-58
2022/10/09 03:33:48;;;;;;;6.13;3.50;;;8.20;99.90;;;;;;5032314;28;20249;-58
2022/10/09 03:36:15;;;;;;;6.37;3.40;;;8.20;99.90;;;;;;5032590;28;20209;-58
2022/10/09 03:38:43;;;;;;;9.13;3.40;;;8.20;99.90;;;;;;5031811;28;20229;-58
2022/10/09 03:41:10;;;;;;;8.20;3.60;;;8.10;99.90;;;;;;5032205;28;20210;-58
2022/10/09 03:43:36;;;;;;;6.40;3.43;;;8.10;99.90;;;;;;5032390;28;20230;-58
2022/10/09 03:46:07;;;;;;;5.93;3.60;;;8.00;99.90;;;;;;5032476;28;20210;-58
2022/10/09 03:48:35;;;;;;;6.03;3.37;;;8.00;99.90;;;;;;5031807;28;20202;-58
2022/10/09 03:51:02;;;;;;;5.40;3.07;;;8.00;99.90;;;;;;5032103;28;20670;-58
2022/10/09 03:53:28;;;;;;;7.33;3.40;;;8.00;99.90;;;;;;5032134;28;20610;-58
2022/10/09 03:55:56;;;;;;;5.80;3.43;;;8.00;99.90;;;;;;5032509;28;20209;-60
2022/10/09 03:58:23;;;;;;;5.00;3.30;;;7.90;99.90;;;;;;5031682;28;20256;-58
2022/10/09 04:00:51;;;;;;;6.23;3.23;;;7.90;99.90;;;;;;5032170;28;20214;-58
2022/10/09 04:03:18;;;;;;;4.00;3.03;;;7.90;99.90;;;;;;5032173;28;20698;-58
2022/10/09 04:05:44;;;;;;;5.93;3.20;;;7.90;99.90;;;;;;5032089;28;20263;-58
2022/10/09 04:08:11;;;;;;;8.80;3.60;;;7.90;99.90;;;;;;5031391;28;20674;-58
2022/10/09 04:10:38;;;;;;;5.07;2.97;;;8.00;99.90;;;;;;5032169;28;20202;-58
2022/10/09 04:13:06;;;;;;;6.37;3.27;;;7.90;99.90;;;;;;5032004;28;20237;-58
2022/10/09 04:15:34;;;;;;;6.07;3.00;;;7.80;99.90;;;;;;5032067;28;20206;-58
2022/10/09 04:18:00;;;;;;;4.67;2.97;;;7.80;99.90;;;;;;5031296;28;20253;-57
2022/10/09 04:20:27;;;;;;;6.73;3.57;;;7.80;99.90;;;;;;5031731;28;20734;-57
2022/10/09 04:22:54;;;;;;;4.37;3.17;;;7.70;99.90;;;;;;5031789;28;20245;-58
2022/10/09 04:25:21;;;;;;;9.97;3.53;;;7.60;99.90;;;;;;5031894;28;20210;-58
2022/10/09 04:27:47;;;;;;;7.50;3.27;;;7.60;99.90;;;;;;5031949;28;20213;-58
2022/10/09 04:30:15;;;;;;;6.03;2.97;;;7.50;99.90;;;;;;5031271;28;20225;-57
2022/10/09 04:32:42;;;;;;;6.63;3.37;;;7.50;99.90;;;;;;5031666;28;20242;-58
2022/10/09 04:35:09;;;;;;;4.77;3.00;;;7.60;99.90;;;;;;5031632;28;20678;-59
2022/10/09 04:37:36;;;;;;;4.80;2.80;;;7.60;99.90;;;;;;5031879;28;20210;-58
2022/10/09 04:40:02;;;;;;;5.93;3.10;;;7.60;99.90;;;;;;5031086;28;20230;-58
2022/10/09 04:42:30;;;;;;;5.43;3.10;;;7.60;99.90;;;;;;5031742;28;20225;-58
2022/10/09 04:44:56;;;;;;;8.93;3.43;;;7.60;99.90;;;;;;5031789;28;20206;-58
2022/10/09 04:47:24;;;;;;;4.60;3.07;;;7.60;99.90;;;;;;5031529;28;20203;-58
2022/10/09 04:49:51;;;;;;;5.47;3.33;;;7.60;99.90;;;;;;5030972;28;20209;-58
2022/10/09 04:52:18;;;;;;;5.80;3.00;;;7.60;99.90;;;;;;5031680;28;20202;-58
2022/10/09 04:54:45;;;;;;;6.97;3.30;;;7.50;99.90;;;;;;5031779;28;20202;-58
2022/10/09 04:57:11;;;;;;;4.90;3.20;;;7.50;99.90;;;;;;5031747;28;20206;-58
2022/10/09 04:59:38;;;;;;;3.70;2.80;;;7.40;99.90;;;;;;5030838;28;20225;-57
2022/10/09 05:02:05;;;;;;;4.60;3.20;;;7.40;99.90;;;;;;5031281;28;20213;-58
2022/10/09 05:04:33;;;;;;;7.13;3.10;;;7.30;99.90;;;;;;5031362;28;20202;-58
2022/10/09 05:07:00;;;;;;;5.00;3.10;;;7.40;99.90;;;;;;5031420;28;20214;-58
2022/10/09 05:09:26;;;;;;;7.80;3.30;;;7.30;99.90;;;;;;5030896;28;20203;-57
2022/10/09 05:11:53;;;;;;;5.80;3.20;;;7.20;99.90;;;;;;5031478;28;20654;-58
2022/10/09 05:14:20;;;;;;;8.70;3.03;;;7.10;99.90;;;;;;5032326;28;20252;-58
2022/10/09 05:16:49;;;;;;;5.87;2.93;;;7.10;99.90;;;;;;5035008;28;20213;-58
2022/10/09 05:19:16;;;;;;;7.10;3.10;;;7.10;99.90;;;;;;5034213;28;20226;-59
2022/10/09 05:21:44;;;;;;;5.30;3.27;;;7.10;99.90;;;;;;5035065;28;20210;-58
2022/10/09 05:24:11;;;;;;;3.63;3.00;;;7.10;99.90;;;;;;5034798;28;20737;-57
2022/10/09 05:26:37;;;;;;;4.63;3.07;;;7.20;99.90;;;;;;5034982;28;20211;-58
2022/10/09 05:29:04;;;;;;;6.30;3.10;;;7.10;99.90;;;;;;5034110;28;20301;-58
2022/10/09 05:31:31;;;;;;;9.10;3.37;;;7.00;99.90;;;;;;5034711;28;20678;-57
2022/10/09 05:34:00;;;;;;;5.67;2.87;;;7.10;99.90;;;;;;5034541;28;20234;-58
2022/10/09 05:36:26;;;;;;;4.63;3.03;;;7.10;99.90;;;;;;5034606;28;20674;-58
2022/10/09 05:38:54;;;;;;;6.97;2.80;;;7.00;99.90;;;;;;5034188;28;20202;-57
2022/10/09 05:41:21;;;;;;;3.23;2.93;;;7.00;99.90;;;;;;5034774;28;20211;-57
2022/10/09 05:43:49;;;;;;;3.73;2.97;;;7.00;99.90;;;;;;5034467;28;20280;-57
2022/10/09 05:46:17;;;;;;;5.23;3.37;;;7.00;99.90;;;;;;5034386;28;20670;-57
2022/10/09 05:48:51;;;;;;;4.67;3.53;;;7.00;99.90;;;;;;5033908;28;20203;-57
2022/10/09 05:51:20;;;;;;;6.57;3.30;;;7.00;99.90;;;;;;5034370;28;20721;-57
2022/10/09 05:53:48;;;;;;;7.03;4.00;;;7.00;99.90;;;;;;5034284;28;20229;-57
2022/10/09 05:56:19;;;;;;;6.07;3.80;;;7.00;99.90;;;;;;5034309;28;20214;-57
2022/10/09 05:58:50;;;;;;;6.07;3.10;;;7.00;99.90;;;;;;5033908;28;20225;-57
2022/10/09 06:01:16;;;;;;;6.57;3.60;;;7.00;99.90;;;;;;5034356;28;20206;-57
2022/10/09 06:03:47;;;;;;;7.63;3.97;;;6.90;99.90;;;;;;5034123;28;20626;-57
2022/10/09 06:06:14;;;;;;;7.40;3.40;;;6.90;99.90;;;;;;5034108;28;20223;-58
2022/10/09 06:08:40;;;;;;;4.23;2.93;;;6.90;99.90;;;;;;5033326;28;20210;-58
2022/10/09 06:11:12;;;;;;;7.60;3.40;;;6.80;99.90;;;;;;5033920;28;20206;-57
2022/10/09 06:13:40;;;;;;;5.47;3.23;;;6.70;99.90;;;;;;5034017;28;20233;-58
2022/10/09 06:16:10;;;;;;;5.47;3.27;;;6.80;99.90;;;;;;5033986;28;20217;-58
2022/10/09 06:18:37;;;;;;;6.37;3.23;;;6.90;99.90;;;;;;5033434;28;20206;-57
2022/10/09 06:21:04;;;;;;;8.63;3.70;;;7.00;99.90;;;;;;5033887;28;20202;-58
2022/10/09 06:23:31;;;;;;;5.67;3.30;;;7.20;99.90;;;;;;5033657;28;20640;-58
2022/10/09 06:26:00;;;;;;;6.73;4.67;;;8.00;99.90;;;;;;5033788;28;20241;-58
2022/10/09 06:28:28;;;;;;;3.87;2.87;;;9.20;99.90;;;;;;5033215;28;20260;-58
2022/10/09 06:31:01;;;;;;;3.47;2.50;;;10.50;99.90;;;;;;5033785;28;20230;-57
2022/10/09 06:33:29;;;;;;;9.50;5.03;;;11.70;99.90;;;;;;5033453;28;20261;-57
2022/10/09 06:35:59;;;;;;;4.77;2.20;;;13.00;99.90;;;;;;5033522;28;20241;-58
2022/10/09 06:38:26;;;;;;;3.80;2.50;;;14.10;99.90;;;;;;5033163;28;20206;-58
2022/10/09 06:40:52;;;;;;;3.33;2.00;;;15.10;99.90;;;;;;5033481;28;20213;-58
2022/10/09 06:43:20;;;;;;;3.60;2.20;;;15.90;99.90;;;;;;5033396;28;20242;-58
2022/10/09 06:45:46;;;;;;;2.60;2.10;;;16.70;99.90;;;;;;5033207;28;20582;-58
2022/10/09 06:48:14;;;;;;;6.43;3.40;;;17.50;99.90;;;;;;5032784;28;20206;-58
2022/10/09 06:50:41;;;;;;;5.43;2.28;;;18.20;99.90;;;;;;5033024;28;20540;-58
2022/10/09 06:53:08;;;;;;;7.25;2.35;;;18.90;99.90;;;;;;5032947;28;20709;-58
2022/10/09 06:55:35;;;;;;;3.20;2.00;;;19.50;99.90;;;;;;5033279;28;20215;-59
2022/10/09 06:58:02;;;;;;;5.78;2.83;;;20.10;99.90;;;;;;5033092;28;20233;-58
2022/10/09 07:00:28;;;;;;;3.83;2.25;;;20.50;99.90;;;;;;5032286;28;20210;-59
2022/10/09 07:02:55;;;;;;;3.92;2.15;;;20.90;99.90;;;;;;5032740;28;20229;-59
2022/10/09 07:05:23;;;;;;;3.83;2.25;;;21.40;99.90;;;;;;5032675;28;20210;-59
2022/10/09 07:07:50;;;;;;;3.40;2.20;;;21.70;99.50;;;;;;5032565;28;20578;-59
2022/10/09 07:10:16;;;;;;;3.85;2.10;;;22.20;98.30;;;;;;5032169;28;20237;-59
2022/10/09 07:12:43;;;;;;;6.05;2.60;;;22.30;96.80;;;;;;5032618;28;20233;-58
2022/10/09 07:15:10;;;;;;;3.35;2.20;;;22.40;96.80;;;;;;5032843;28;20591;-57
2022/10/09 07:17:37;;;;;;;5.22;2.33;;;22.60;95.60;;;;;;5032591;28;20206;-57
2022/10/09 07:20:04;;;;;;;4.07;2.40;;;22.60;94.90;;;;;;5031703;28;20684;-57
2022/10/09 07:22:33;;;;;;;5.70;2.30;;;22.30;95.10;;;;;;5032588;28;20777;-58
2022/10/09 07:25:00;;;;;;;5.95;2.33;;;21.90;95.30;;;;;;5032438;28;20575;-58
2022/10/09 07:27:27;;;;;;;4.57;2.67;;;21.20;95.80;;;;;;5032830;28;20642;-58
2022/10/09 07:29:54;;;;;;;5.35;2.58;;;20.30;96.90;;;;;;5031841;28;20226;-58
2022/10/09 07:32:21;;;;;;;7.20;2.40;;;19.20;98.40;;;;;;5032185;28;20210;-58
2022/10/09 07:34:47;;;;;;;5.25;2.42;;;18.00;99.90;;;;;;5082545;22;20233;-56
2022/10/09 07:37:14;;;;;;;4.22;2.40;;;17.00;99.90;;;;;;5072627;28;20205;-57
2022/10/09 07:39:42;;;;;;;4.03;2.63;;;16.10;99.90;;;;;;5072929;28;20205;-57
2022/10/09 07:42:09;;;;;;;4.47;2.60;;;15.50;99.90;;;;;;5073006;28;20216;-57
2022/10/09 07:44:36;;;;;;;6.13;2.70;;;14.90;99.90;;;;;;5072991;28;20623;-57
2022/10/09 07:47:03;;;;;;;2.87;2.03;;;14.50;99.90;;;;;;5072720;28;20557;-57
2022/10/09 07:49:30;;;;;;;3.13;2.50;;;14.20;99.90;;;;;;5072539;28;20231;-57
2022/10/09 07:51:59;;;;;;;5.63;2.67;;;13.90;99.90;;;;;;5072834;28;20676;-57
2022/10/09 07:54:25;;;;;;;5.93;2.67;;;13.70;99.90;;;;;;5073295;28;20267;-56
2022/10/09 07:56:54;;;;;;;5.40;2.77;;;13.60;99.90;;;;;;5072751;28;20287;-59
2022/10/09 07:59:20;;;;;;;5.50;2.70;;;13.40;99.90;;;;;;5072274;28;20211;-58
2022/10/09 08:01:47;;;;;;;4.73;2.83;;;13.40;99.90;;;;;;5072579;28;20219;-56
2022/10/09 08:04:14;;;;;;;4.93;2.43;;;13.30;99.90;;;;;;5072812;28;20224;-56
2022/10/09 08:06:41;;;;;;;3.57;2.40;;;13.30;99.90;;;;;;5072713;28;20205;-58
2022/10/09 08:09:08;;;;;;;9.93;2.30;;;13.20;99.90;;;;;;5072414;28;20208;-58
2022/10/09 08:11:39;;;;;;;5.70;2.20;;;13.20;99.90;;;;;;5072721;28;20232;-58
2022/10/09 08:14:08;;;;;;;3.80;2.60;;;13.20;99.90;;;;;;5072701;28;20228;-57
2022/10/09 08:16:35;;;;;;;6.27;2.50;;;13.30;99.90;;;;;;5072977;28;20208;-56
2022/10/09 08:19:02;;;;;;;3.47;1.93;;;13.30;99.90;;;;;;5072416;28;20208;-57
2022/10/09 08:21:31;;;;;;;6.80;2.47;;;13.30;99.90;;;;;;5073343;28;20212;-57
2022/10/09 08:23:59;;;;;;;3.13;1.90;;;13.40;99.90;;;;;;5073194;28;20658;-57
2022/10/09 08:26:27;;;;;;;5.07;2.10;;;13.40;99.90;;;;;;5072250;28;20211;-56
2022/10/09 08:28:56;;;;;;;6.57;2.43;;;13.50;99.90;;;;;;5072434;28;20686;-57
2022/10/09 08:31:24;;;;;;;4.93;2.00;;;13.60;99.90;;;;;;5072574;28;20225;-57
2022/10/09 08:33:52;;;;;;;7.27;2.30;;;13.60;99.90;;;;;;5072348;28;20716;-57
2022/10/09 08:36:19;;;;;;;6.13;2.03;;;13.70;99.90;;;;;;5072688;28;20213;-57
2022/10/09 08:38:46;;;;;;;3.93;2.00;;;13.80;99.90;;;;;;5072072;28;20216;-57
2022/10/09 08:41:21;;;;;;;5.73;2.50;;;13.90;99.90;;;;;;5072410;28;20207;-57
2022/10/09 08:43:52;;;;;;;4.67;2.07;;;14.00;99.90;;;;;;5072261;28;20239;-57
2022/10/09 08:46:25;;;;;;;6.50;2.10;;;14.10;99.90;;;;;;5072278;28;20197;-57
2022/10/09 08:48:54;;;;;;;3.73;1.53;;;14.10;99.90;;;;;;5071922;28;20212;-59
2022/10/09 08:51:26;;;;;;;3.33;2.00;;;14.10;99.90;;;;;;5075758;28;20714;-57
2022/10/09 08:53:58;;;;;;;3.47;2.10;;;14.30;99.90;;;;;;5076155;28;20229;-57
2022/10/09 08:56:27;;;;;;;3.03;1.80;;;14.40;99.90;;;;;;5076246;28;20201;-58
2022/10/09 08:58:54;;;;;;;3.03;2.03;;;14.50;99.90;;;;;;5075746;28;20283;-56
2022/10/09 09:01:32;;;;;;;4.33;2.27;;;14.60;99.90;;;;;;5076080;28;20205;-56
2022/10/09 09:04:44;;;;;;;3.60;2.03;;;14.80;99.90;;;;;;5076249;28;20228;-57
2022/10/09 09:07:17;;;;;;;4.07;1.70;;;14.90;99.90;;;;;;5069648;28;20209;-57
2022/10/09 09:09:53;;;;;;;4.70;2.00;;;14.90;99.90;;;;;;5075494;28;20209;-57
2022/10/09 09:12:27;;;;;;;4.37;1.70;;;14.80;99.90;;;;;;5075908;28;20213;-57
2022/10/09 09:15:10;;;;;;;3.83;1.73;;;14.90;99.90;;;;;;5075767;28;20225;-56
2022/10/09 09:17:45;;;;;;;4.57;1.87;;;15.00;99.90;;;;;;5076032;28;20683;-57
2022/10/09 09:20:20;;;;;;;3.00;1.70;;;15.00;99.90;;;;;;5076023;28;20204;-58
2022/10/09 09:22:49;;;;;;;4.67;2.10;;;14.90;99.90;;;;;;5076503;28;20270;-56
2022/10/09 09:25:22;;;;;;;4.80;2.10;;;15.00;99.90;;;;;;5076212;28;20204;-58
2022/10/09 09:27:49;;;;;;;4.83;1.80;;;15.10;99.90;;;;;;5075848;28;20208;-58
2022/10/09 09:30:20;;;;;;;2.43;1.70;;;15.30;99.90;;;;;;5075441;28;20220;-58
2022/10/09 09:32:56;;;;;;;2.53;1.80;;;15.50;99.90;;;;;;5075556;28;20211;-57
2022/10/09 09:35:32;;;;;;;4.93;1.80;;;15.60;99.90;;;;;;5075857;28;20255;-58
2022/10/09 09:38:01;;;;;;;3.77;2.10;;;15.80;99.90;;;;;;5076133;28;20734;-57
2022/10/09 09:40:32;;;;;;;5.43;1.77;;;15.90;99.90;;;;;;5076103;28;20200;-59
2022/10/09 09:43:00;;;;;;;3.40;1.80;;;16.00;99.90;;;;;;5076443;28;20307;-57
2022/10/09 09:45:29;;;;;;;4.10;1.47;;;16.10;99.90;;;;;;5076264;28;20288;-57
2022/10/09 09:48:00;;;;;;;3.47;1.60;;;16.10;99.90;;;;;;5077156;28;20208;-58
2022/10/09 09:50:35;;;;;;;4.97;1.67;;;16.20;99.90;;;;;;5076075;28;20288;-57
2022/10/09 09:53:05;;;;;;;2.93;1.77;;;16.20;99.90;;;;;;5077149;28;20254;-57
2022/10/09 09:55:33;;;;;;;6.00;1.80;;;16.30;99.90;;;;;;5076782;28;20215;-57
2022/10/09 09:58:03;;;;;;;2.80;1.40;;;16.30;99.90;;;;;;5076828;28;20296;-58
2022/10/09 10:00:30;;;;;;;4.77;1.60;;;16.40;99.90;;;;;;5075624;28;20197;-58
2022/10/09 10:03:10;;;;;;;3.67;1.90;;;16.60;99.90;;;;;;5077200;28;20278;-57
2022/10/09 10:05:40;;;;;;;3.83;1.60;;;16.60;99.90;;;;;;5076577;28;20216;-57
2022/10/09 10:08:15;;;;;;;5.20;1.52;;;16.60;99.90;;;;;;5077623;28;20228;-57
2022/10/09 10:10:46;;;;;;;2.63;1.30;;;16.60;99.90;;;;;;5077451;28;20238;-58
2022/10/09 10:13:17;;;;;;;2.97;1.67;;;16.70;99.90;;;;;;5076918;28;20236;-57
2022/10/09 10:15:53;;;;;;;3.37;1.50;;;16.80;99.90;;;;;;5076163;28;20683;-58
2022/10/09 10:18:22;;;;;;;5.93;1.58;;;16.80;99.90;;;;;;5076525;28;20209;-58
2022/10/09 10:20:53;;;;;;;4.73;1.93;;;17.00;99.90;;;;;;5076655;28;20201;-60
2022/10/09 10:23:30;;;;;;;2.93;1.20;;;17.10;99.90;;;;;;5076279;28;20239;-58
2022/10/09 10:25:59;;;;;;;3.25;1.50;;;17.10;99.90;;;;;;5076221;28;20204;-57
2022/10/09 10:28:34;;;;;;;2.75;1.58;;;17.20;99.90;;;;;;5076882;28;20205;-57
2022/10/09 10:31:05;;;;;;;4.65;1.55;;;17.30;99.90;;;;;;5075242;28;20227;-57
2022/10/09 10:33:33;;;;;;;1.77;1.38;;;17.30;99.90;;;;;;5075226;28;20237;-57
2022/10/09 10:36:02;;;;;;;5.70;1.58;;;17.30;99.90;;;;;;5075250;28;20227;-56
2022/10/09 10:38:33;;;;;;;5.03;1.40;;;17.30;99.90;;;;;;5075058;28;20197;-58
2022/10/09 10:41:11;;;;;;;3.53;1.48;;;17.40;99.90;;;;;;5074964;28;20680;-57
2022/10/09 10:43:43;;;;;;;2.60;1.13;;;17.50;99.90;;;;;;5074612;28;20712;-57
2022/10/09 10:46:22;;;;;;;2.75;1.42;;;17.60;99.90;;;;;;5074673;28;20205;-58
2022/10/09 10:48:50;;;;;;;3.17;1.35;;;17.60;99.90;;;;;;5074077;28;20213;-56
2022/10/09 10:51:44;;;;;;;3.55;1.42;;;17.70;99.90;;;;;;5074570;28;20220;-57
2022/10/09 10:54:35;;;;;;;1.48;1.20;;;17.80;99.90;;;;;;5073999;28;20228;-57
2022/10/09 10:57:10;;;;;;;2.70;1.42;;;17.90;99.90;;;;;;5074099;28;20240;-57
2022/10/09 10:59:48;;;;;;;2.28;1.15;;;18.00;99.90;;;;;;5073490;28;20235;-57
2022/10/09 11:02:42;;;;;;;2.63;1.40;;;18.10;99.90;;;;;;5073925;28;20200;-58
2022/10/09 11:05:32;;;;;;;4.65;1.27;;;18.10;99.90;;;;;;5073647;28;20714;-56
2022/10/09 11:08:14;;;;;;;3.88;1.42;;;18.20;99.90;;;;;;5073560;28;20209;-57
2022/10/09 11:10:59;;;;;;;3.20;1.35;;;18.40;99.90;;;;;;5073212;28;20236;-57
2022/10/09 11:13:32;;;;;;;3.38;1.20;;;18.50;99.90;;;;;;5073008;28;20224;-57
2022/10/09 11:16:14;;;;;;;3.47;1.20;;;18.60;99.90;;;;;;5074021;28;20565;-57
2022/10/09 11:18:55;;;;;;;2.45;1.30;;;18.50;99.90;;;;;;5073106;28;20211;-57
2022/10/09 11:21:39;;;;;;;3.22;1.33;;;18.50;99.90;;;;;;5074584;28;20239;-57
2022/10/09 11:24:44;;;;;;;3.30;1.27;;;18.50;99.90;;;;;;5073371;28;20260;-58
2022/10/09 11:27:17;;;;;;;1.63;1.20;;;18.50;99.90;;;;;;5048688;28;20291;-57
2022/10/09 11:29:51;;;;;;;3.20;1.25;;;18.60;99.90;;;;;;5072806;28;20216;-57
2022/10/09 11:32:22;;;;;;;3.03;1.20;;;18.60;99.90;;;;;;5072783;28;20289;-58
2022/10/09 11:34:56;;;;;;;6.32;1.48;;;18.80;99.90;;;;;;5072922;28;20233;-57
2022/10/09 11:37:28;;;;;;;1.85;1.17;;;18.90;99.90;;;;;;5072643;28;20209;-58
2022/10/09 11:39:56;;;;;;;1.90;1.30;;;18.80;99.90;;;;;;5072225;28;20216;-57
2022/10/09 11:42:25;;;;;;;3.10;1.40;;;18.80;99.90;;;;;;5072931;28;20200;-57
2022/10/09 11:45:06;;;;;;;3.72;1.20;;;18.80;99.90;;;;;;5073308;28;20225;-58
2022/10/09 11:47:39;;;;;;;2.47;1.30;;;18.90;99.90;;;;;;5073548;28;20216;-57
2022/10/09 11:50:26;;;;;;;6.40;1.38;;;19.10;99.90;;;;;;5072629;28;20295;-57
2022/10/09 11:53:00;;;;;;;3.83;1.08;;;19.20;99.40;;;;;;5073818;28;20774;-58
2022/10/09 11:55:30;;;;;;;4.22;1.20;;;19.20;99.40;;;;;;5073348;28;20204;-58
2022/10/09 11:58:08;;;;;;;1.45;0.95;;;19.00;99.40;;;;;;5072913;28;20287;-57
2022/10/09 12:00:36;;;;;;;3.78;1.00;;;18.90;99.50;;;;;;5072538;28;20205;-57
2022/10/09 12:03:06;;;;;;;3.00;1.25;;;18.80;99.80;;;;;;5072723;28;20311;-57
2022/10/09 12:05:51;;;;;;;2.63;1.27;;;18.80;99.40;;;;;;5073439;28;20215;-58
2022/10/09 12:08:25;;;;;;;2.60;1.10;;;19.00;98.70;;;;;;5072913;28;20549;-58
2022/10/09 12:10:55;;;;;;;2.47;1.33;;;19.00;98.60;;;;;;5072815;28;20238;-58
2022/10/09 12:13:41;;;;;;;3.90;0.90;;;19.10;98.70;;;;;;5072712;28;20256;-57
2022/10/09 12:16:10;;;;;;;3.67;1.10;;;19.10;98.20;;;;;;5073112;28;20204;-57
2022/10/09 12:18:40;;;;;;;3.75;1.40;;;19.30;97.70;;;;;;5072461;28;20244;-57
2022/10/09 12:21:21;;;;;;;2.92;1.10;;;19.40;97.40;;;;;;5072792;28;20200;-57
2022/10/09 12:23:49;;;;;;;1.83;1.20;;;19.20;97.60;;;;;;5075892;28;20224;-57
2022/10/09 12:26:20;;;;;;;6.10;1.42;;;19.00;97.30;;;;;;5079188;28;20301;-57
2022/10/09 12:28:51;;;;;;;1.98;1.10;;;18.90;98.00;;;;;;5078425;28;20204;-59
2022/10/09 12:31:22;;;;;;;1.52;1.10;;;19.00;97.80;;;;;;5079299;28;20232;-57
2022/10/09 12:33:53;;;;;;;2.85;1.25;;;19.10;97.60;;;;;;5079340;28;20251;-58
2022/10/09 12:36:23;;;;;;;5.70;1.48;;;19.20;97.30;;;;;;5079916;28;20215;-58
2022/10/09 12:38:51;;;;;;;2.63;1.23;;;19.30;97.50;;;;;;5078635;28;20695;-57
2022/10/09 12:41:23;;;;;;;2.92;1.08;;;19.30;97.10;;;;;;5079245;28;20228;-57
2022/10/09 12:43:53;;;;;;;3.00;1.00;;;19.10;97.30;;;;;;5079099;28;20648;-57
2022/10/09 12:46:31;;;;;;;4.45;2.42;;;19.10;97.00;;;;;;5079218;28;20205;-57
2022/10/09 12:49:00;;;;;;;3.28;1.40;;;19.10;97.60;;;;;;5078508;28;20200;-57
2022/10/09 12:51:29;;;;;;;1.45;1.13;;;19.10;97.00;;;;;;5078967;28;20784;-58
2022/10/09 12:53:56;;;;;;;4.90;1.45;;;19.30;96.60;;;;;;5078499;28;20232;-58
2022/10/09 12:56:27;;;;;;;2.05;1.10;;;19.30;96.90;;;;;;5078504;28;20299;-57
2022/10/09 12:58:55;;;;;;;5.03;1.25;;;19.40;96.20;;;;;;5078070;28;20219;-58
2022/10/09 13:01:23;;;;;;;3.25;1.05;;;19.30;96.00;;;;;;5078787;28;20197;-57
2022/10/09 13:03:55;;;;;;;3.47;0.93;;;19.30;95.90;;;;;;5078393;28;20346;-57
2022/10/09 13:06:24;;;;;;;1.90;1.05;;;19.20;96.20;;;;;;5078863;28;20315;-57
2022/10/09 13:08:53;;;;;;;2.45;1.00;;;19.00;96.70;;;;;;5078138;28;20208;-57